createdAt,value
2022-08-21T00:01:52.106Z,1.50
2022-08-21T00:04:57.975Z,0.90
2022-08-21T00:08:02.512Z,0.82
2022-08-21T00:11:07.687Z,1.15
2022-08-21T00:14:13.022Z,1.00
2022-08-21T00:20:23.784Z,1.00
2022-08-21T00:23:28.369Z,0.90
2022-08-21T00:26:33.149Z,1.10
2022-08-21T00:29:37.722Z,0.93
2022-08-21T00:32:43.018Z,1.03
2022-08-21T00:38:51.739Z,0.88
2022-08-21T00:41:56.495Z,0.90
2022-08-21T00:45:01.372Z,0.93
2022-08-21T00:48:08.291Z,0.88
2022-08-21T00:54:24.491Z,1.10
2022-08-21T00:57:38.525Z,1.02
2022-08-21T01:00:48.454Z,1.25
2022-08-21T01:03:53.486Z,1.40
2022-08-21T01:06:58.618Z,1.38
2022-08-21T01:10:03.871Z,1.13
2022-08-21T01:13:11.740Z,1.10
2022-08-21T01:16:19.263Z,0.70
2022-08-21T01:19:26.123Z,1.20
2022-08-21T01:22:30.837Z,0.80
2022-08-21T01:25:36.820Z,0.90
2022-08-21T01:28:51.092Z,0.65
2022-08-21T01:31:55.939Z,1.08
2022-08-21T01:35:00.570Z,1.50
2022-08-21T01:38:07.759Z,1.10
2022-08-21T01:44:17.303Z,1.20
2022-08-21T01:47:21.799Z,1.65
2022-08-21T01:50:26.439Z,0.98
2022-08-21T01:53:33.475Z,0.90
2022-08-21T01:56:41.284Z,0.52
2022-08-21T01:59:48.851Z,0.70
2022-08-21T02:02:54.569Z,0.93
2022-08-21T02:05:59.258Z,1.08
2022-08-21T02:09:06.093Z,0.70
2022-08-21T02:12:11.451Z,0.68
2022-08-21T02:15:16.471Z,0.90
2022-08-21T02:18:21.120Z,1.20
2022-08-21T02:21:25.968Z,1.15
2022-08-21T02:24:30.861Z,1.02
2022-08-21T02:27:42.340Z,0.90
2022-08-21T02:30:49.855Z,0.98
2022-08-21T02:33:54.741Z,0.88
2022-08-21T02:40:05.344Z,0.73
2022-08-21T02:43:10.249Z,0.68
2022-08-21T02:46:19.323Z,0.80
2022-08-21T02:49:24.092Z,1.08
2022-08-21T02:52:29.074Z,1.27
2022-08-21T02:58:43.508Z,0.80
2022-08-21T03:01:48.118Z,0.73
2022-08-21T03:04:52.845Z,0.80
2022-08-21T03:07:57.766Z,0.70
2022-08-21T03:14:10.120Z,1.23
2022-08-21T03:17:14.788Z,0.88
2022-08-21T03:20:24.507Z,2.00
2022-08-21T03:23:32.747Z,1.13
2022-08-21T03:26:37.624Z,0.90
2022-08-21T03:29:45.150Z,0.70
2022-08-21T03:32:50.750Z,0.82
2022-08-21T03:36:02.354Z,0.77
2022-08-21T03:39:07.258Z,0.95
2022-08-21T03:42:11.738Z,1.13
2022-08-21T03:45:18.702Z,1.05
2022-08-21T03:48:23.752Z,0.90
2022-08-21T03:51:28.541Z,1.10
2022-08-21T03:54:33.376Z,1.30
2022-08-21T03:57:37.991Z,0.75
2022-08-21T04:00:42.756Z,0.93
2022-08-21T04:03:47.522Z,1.15
2022-08-21T04:06:52.610Z,0.90
2022-08-21T04:13:01.533Z,0.80
2022-08-21T04:16:07.002Z,0.60
2022-08-21T04:19:12.851Z,1.02
2022-08-21T04:22:19.119Z,1.05
2022-08-21T04:25:25.391Z,1.00
2022-08-21T04:28:31.250Z,0.77
2022-08-21T04:31:38.844Z,0.77
2022-08-21T04:34:43.534Z,0.80
2022-08-21T04:37:48.788Z,0.75
2022-08-21T04:40:54.792Z,0.90
2022-08-21T04:43:59.870Z,0.98
2022-08-21T04:50:09.735Z,0.80
2022-08-21T04:53:32.824Z,1.00
2022-08-21T04:57:07.333Z,1.10
2022-08-21T05:00:14.794Z,0.80
2022-08-21T05:03:20.318Z,0.73
2022-08-21T05:06:26.326Z,0.80
2022-08-21T05:09:32.068Z,0.80
2022-08-21T05:12:37.794Z,0.63
2022-08-21T05:15:44.149Z,0.73
2022-08-21T05:18:48.763Z,0.70
2022-08-21T05:21:53.405Z,0.60
2022-08-21T05:25:00.186Z,0.70
2022-08-21T05:28:06.497Z,0.70
2022-08-21T05:31:11.036Z,0.82
2022-08-21T05:34:18.590Z,1.00
2022-08-21T05:37:23.790Z,0.90
2022-08-21T05:40:29.575Z,0.80
2022-08-21T05:43:37.940Z,1.10
2022-08-21T05:46:42.692Z,1.17
2022-08-21T05:49:47.330Z,0.60
2022-08-21T05:52:51.831Z,1.00
2022-08-21T05:56:01.338Z,0.90
2022-08-21T05:59:08.614Z,0.90
2022-08-21T06:02:13.459Z,0.80
2022-08-21T06:05:36.818Z,0.75
2022-08-21T06:08:42.140Z,0.70
2022-08-21T06:11:46.635Z,0.75
2022-08-21T06:14:53.792Z,0.73
2022-08-21T06:17:58.383Z,0.63
2022-08-21T06:21:03.023Z,0.75
2022-08-21T06:24:08.786Z,0.80
2022-08-21T06:27:13.607Z,0.80
2022-08-21T06:30:18.289Z,0.70
2022-08-21T06:33:22.984Z,0.90
2022-08-21T06:36:27.900Z,0.60
2022-08-21T06:39:33.166Z,0.73
2022-08-21T06:42:37.715Z,0.82
2022-08-21T06:48:47.187Z,0.70
2022-08-21T06:51:52.272Z,1.40
2022-08-21T06:58:01.000Z,0.95
2022-08-21T07:01:06.585Z,0.90
2022-08-21T07:04:11.735Z,1.27
2022-08-21T07:10:22.361Z,0.80
2022-08-21T07:13:28.332Z,1.00
2022-08-21T07:16:33.142Z,0.80
2022-08-21T07:19:37.704Z,0.70
2022-08-21T07:22:43.241Z,1.83
2022-08-21T07:25:47.995Z,0.73
2022-08-21T07:28:53.451Z,0.98
2022-08-21T07:31:58.631Z,0.95
2022-08-21T07:38:08.106Z,1.13
2022-08-21T07:41:19.900Z,0.82
2022-08-21T07:44:24.641Z,2.55
2022-08-21T07:47:42.252Z,1.25
2022-08-21T07:50:47.493Z,0.70
2022-08-21T07:53:55.000Z,0.90
2022-08-21T07:56:59.488Z,0.82
2022-08-21T08:00:09.335Z,0.70
2022-08-21T08:03:20.535Z,0.80
2022-08-21T08:06:33.437Z,0.57
2022-08-21T08:09:38.142Z,0.95
2022-08-21T08:12:44.612Z,0.82
2022-08-21T08:15:49.094Z,0.90
2022-08-21T08:18:53.733Z,1.00
2022-08-21T08:21:58.301Z,1.02
2022-08-21T08:25:07.510Z,1.50
2022-08-21T08:28:16.381Z,0.98
2022-08-21T08:31:22.404Z,1.13
2022-08-21T08:34:27.083Z,1.08
2022-08-21T08:37:34.519Z,1.10
2022-08-21T08:40:53.323Z,1.50
2022-08-21T08:44:03.308Z,1.60
2022-08-21T08:47:08.501Z,1.80
2022-08-21T08:53:45.406Z,1.50
2022-08-21T08:56:52.846Z,1.33
2022-08-21T09:00:01.367Z,3.90
2022-08-21T09:03:07.910Z,1.70
2022-08-21T09:06:20.656Z,2.17
2022-08-21T09:09:43.224Z,2.95
2022-08-21T09:13:16.633Z,2.10
2022-08-21T09:16:48.827Z,4.00
2022-08-21T09:20:26.807Z,1.85
2022-08-21T09:23:51.985Z,3.58
2022-08-21T09:27:04.352Z,5.35
2022-08-21T09:30:11.764Z,7.57
2022-08-21T09:33:17.870Z,6.03
2022-08-21T09:36:33.630Z,7.60
2022-08-21T09:39:46.876Z,8.13
2022-08-21T09:43:07.783Z,7.47
2022-08-21T09:46:24.821Z,9.38
2022-08-21T09:49:34.852Z,3.20
2022-08-21T09:52:52.356Z,2.72
2022-08-21T09:56:25.336Z,2.33
2022-08-21T09:59:37.281Z,1.70
2022-08-21T10:02:42.302Z,1.85
2022-08-21T10:06:10.342Z,2.30
2022-08-21T10:09:21.833Z,1.50
2022-08-21T10:12:44.651Z,1.55
2022-08-21T10:16:10.945Z,1.77
2022-08-21T10:19:27.552Z,3.60
2022-08-21T10:22:41.476Z,1.92
2022-08-21T10:26:13.983Z,1.70
2022-08-21T10:29:45.885Z,1.35
2022-08-21T10:33:05.805Z,1.33
2022-08-21T10:36:22.092Z,1.30
2022-08-21T10:39:39.046Z,1.52
2022-08-21T10:43:02.109Z,3.30
2022-08-21T10:46:30.645Z,7.95
2022-08-21T10:49:56.851Z,6.32
2022-08-21T10:53:22.836Z,10.90
2022-08-21T10:59:44.439Z,12.15
2022-08-21T11:02:52.131Z,11.88
2022-08-21T11:06:07.170Z,11.55
2022-08-21T11:09:21.415Z,11.25
2022-08-21T11:12:51.656Z,10.02
2022-08-21T11:15:59.741Z,10.15
2022-08-21T11:19:18.154Z,10.43
2022-08-21T11:22:37.444Z,9.43
2022-08-21T11:26:11.175Z,9.40
2022-08-21T11:29:29.216Z,9.23
2022-08-21T11:33:03.634Z,8.73
2022-08-21T11:36:22.691Z,7.25
2022-08-21T11:39:36.470Z,7.50
2022-08-21T11:42:55.195Z,8.15
2022-08-21T11:46:35.622Z,6.25
2022-08-21T11:50:18.176Z,5.40
2022-08-21T11:53:54.201Z,4.78
2022-08-21T11:57:08.812Z,3.53
2022-08-21T12:00:27.020Z,2.83
2022-08-21T12:03:45.918Z,3.33
2022-08-21T12:06:51.263Z,3.00
2022-08-21T12:09:59.234Z,2.08
2022-08-21T12:13:39.784Z,2.20
2022-08-21T12:16:49.652Z,2.22
2022-08-21T12:20:20.149Z,2.30
2022-08-21T12:23:51.808Z,2.50
2022-08-21T12:27:33.593Z,2.90
2022-08-21T12:30:45.077Z,3.03
2022-08-21T12:34:07.381Z,3.78
2022-08-21T12:37:37.387Z,3.80
2022-08-21T12:41:04.865Z,3.30
2022-08-21T12:44:16.244Z,3.72
2022-08-21T12:47:28.216Z,3.58
2022-08-21T12:50:39.285Z,3.70
2022-08-21T12:53:59.121Z,4.15
2022-08-21T12:57:07.536Z,3.28
2022-08-21T13:00:16.613Z,4.35
2022-08-21T13:03:22.056Z,4.57
2022-08-21T13:09:34.155Z,3.60
2022-08-21T13:12:38.876Z,4.25
2022-08-21T13:15:47.451Z,4.25
2022-08-21T13:19:07.332Z,4.18
2022-08-21T13:22:34.330Z,3.42
2022-08-21T13:25:39.959Z,4.10
2022-08-21T13:28:45.866Z,4.50
2022-08-21T13:32:02.273Z,3.83
2022-08-21T13:35:18.410Z,3.90
2022-08-21T13:38:27.083Z,3.58
2022-08-21T13:41:36.698Z,3.20
2022-08-21T13:44:48.680Z,3.40
2022-08-21T13:47:54.798Z,3.55
2022-08-21T13:51:01.702Z,3.25
2022-08-21T13:54:25.520Z,3.38
2022-08-21T13:57:33.140Z,4.03
2022-08-21T14:00:51.035Z,3.42
2022-08-21T14:03:59.786Z,3.35
2022-08-21T14:07:19.828Z,3.30
2022-08-21T14:10:25.480Z,3.30
2022-08-21T14:13:43.534Z,3.50
2022-08-21T14:16:56.232Z,4.30
2022-08-21T14:20:00.912Z,4.03
2022-08-21T14:23:08.064Z,4.60
2022-08-21T14:26:13.048Z,3.60
2022-08-21T14:29:21.007Z,3.97
2022-08-21T14:32:32.850Z,3.88
2022-08-21T14:35:37.694Z,3.65
2022-08-21T14:38:42.995Z,2.97
2022-08-21T14:41:49.905Z,3.05
2022-08-21T14:44:58.571Z,3.40
2022-08-21T14:48:03.199Z,3.00
2022-08-21T14:51:08.212Z,2.90
2022-08-21T14:54:13.046Z,3.20
2022-08-21T14:57:18.220Z,3.28
2022-08-21T15:00:27.071Z,2.97
2022-08-21T15:03:41.321Z,2.95
2022-08-21T15:06:46.043Z,2.97
2022-08-21T15:09:50.481Z,2.75
2022-08-21T15:12:55.287Z,2.67
2022-08-21T15:16:00.347Z,3.38
2022-08-21T15:19:05.561Z,2.50
2022-08-21T15:22:15.480Z,2.67
2022-08-21T15:25:24.088Z,2.90
2022-08-21T15:28:31.744Z,3.03
2022-08-21T15:31:38.204Z,3.00
2022-08-21T15:34:42.924Z,2.65
2022-08-21T15:37:47.412Z,3.60
2022-08-21T15:40:52.772Z,3.22
2022-08-21T15:47:02.849Z,2.97
2022-08-21T15:53:14.470Z,2.90
2022-08-21T15:56:28.716Z,3.17
2022-08-21T15:59:41.625Z,2.78
2022-08-21T16:02:49.993Z,2.80
2022-08-21T16:05:54.894Z,2.53
2022-08-21T16:08:59.668Z,2.88
2022-08-21T16:12:06.351Z,2.80
2022-08-21T16:15:17.838Z,2.42
2022-08-21T16:18:27.450Z,2.50
2022-08-21T16:21:32.033Z,2.63
2022-08-21T16:24:37.418Z,3.08
2022-08-21T16:27:47.175Z,2.65
2022-08-21T16:30:53.072Z,2.63
2022-08-21T16:33:58.392Z,2.53
2022-08-21T16:37:03.414Z,2.47
2022-08-21T16:40:11.133Z,2.58
2022-08-21T16:43:17.008Z,2.05
2022-08-21T16:46:23.156Z,2.45
2022-08-21T16:49:28.638Z,2.60
2022-08-21T16:55:39.381Z,2.40
2022-08-21T16:58:49.104Z,2.92
2022-08-21T17:01:55.885Z,2.40
2022-08-21T17:05:02.072Z,2.50
2022-08-21T17:08:09.954Z,2.40
2022-08-21T17:11:37.310Z,2.10
2022-08-21T17:14:43.072Z,2.40
2022-08-21T17:17:48.351Z,2.38
2022-08-21T17:23:58.157Z,2.83
2022-08-21T17:27:04.580Z,2.50
2022-08-21T17:30:09.921Z,2.53
2022-08-21T17:33:16.866Z,2.40
2022-08-21T17:36:28.346Z,2.45
2022-08-21T17:39:33.212Z,2.60
2022-08-21T17:42:38.233Z,2.60
2022-08-21T17:45:44.857Z,2.63
2022-08-21T17:48:49.332Z,3.35
2022-08-21T17:51:53.878Z,3.90
2022-08-21T17:54:58.515Z,2.60
2022-08-21T17:58:04.514Z,2.90
2022-08-21T18:01:09.133Z,2.30
2022-08-21T18:04:14.146Z,2.30
2022-08-21T18:07:31.931Z,2.20
2022-08-21T18:10:40.087Z,2.47
2022-08-21T18:13:44.831Z,2.53
2022-08-21T18:16:50.922Z,2.38
2022-08-21T18:19:55.854Z,2.47
2022-08-21T18:23:00.925Z,2.00
2022-08-21T18:26:06.812Z,2.15
2022-08-21T18:29:13.934Z,2.20
2022-08-21T18:32:30.632Z,2.10
2022-08-21T18:35:36.823Z,2.40
2022-08-21T18:38:42.316Z,2.15
2022-08-21T18:41:48.402Z,2.35
2022-08-21T18:44:56.083Z,2.33
2022-08-21T18:48:02.765Z,2.10
2022-08-21T18:51:07.821Z,2.00
2022-08-21T18:57:17.825Z,1.88
2022-08-21T19:00:27.242Z,2.15
2022-08-21T19:03:31.864Z,2.38
2022-08-21T19:06:37.959Z,2.08
2022-08-21T19:09:52.669Z,1.88
2022-08-21T19:13:07.391Z,2.40
2022-08-21T19:16:12.216Z,1.80
2022-08-21T19:19:19.038Z,2.65
2022-08-21T19:22:25.109Z,2.45
2022-08-21T19:25:33.533Z,1.77
2022-08-21T19:28:46.911Z,2.63
2022-08-21T19:31:51.671Z,1.90
2022-08-21T19:34:56.712Z,2.30
2022-08-21T19:38:02.736Z,2.20
2022-08-21T19:41:13.622Z,1.88
2022-08-21T19:44:22.599Z,2.00
2022-08-21T19:47:29.658Z,1.90
2022-08-21T19:50:34.478Z,1.98
2022-08-21T19:53:39.259Z,2.10
2022-08-21T19:56:44.590Z,2.17
2022-08-21T19:59:49.335Z,2.03
2022-08-21T20:02:54.243Z,1.85
2022-08-21T20:05:58.852Z,1.85
2022-08-21T20:09:08.490Z,2.47
2022-08-21T20:12:16.342Z,2.10
2022-08-21T20:15:22.955Z,2.42
2022-08-21T20:18:28.073Z,1.98
2022-08-21T20:25:00.447Z,2.00
2022-08-21T20:28:06.180Z,2.10
2022-08-21T20:31:14.663Z,2.60
2022-08-21T20:34:19.820Z,2.58
2022-08-21T20:37:36.258Z,2.30
2022-08-21T20:40:51.944Z,2.28
2022-08-21T20:43:58.852Z,2.00
2022-08-21T20:47:09.208Z,2.20
2022-08-21T20:50:18.866Z,9.02
2022-08-21T20:54:01.299Z,2.70
2022-08-21T20:57:24.814Z,2.45
2022-08-21T21:00:34.118Z,2.25
2022-08-21T21:03:46.560Z,2.30
2022-08-21T21:06:56.922Z,2.00
2022-08-21T21:10:07.265Z,2.20
2022-08-21T21:13:45.150Z,2.25
2022-08-21T21:16:59.489Z,2.10
2022-08-21T21:20:11.678Z,2.47
2022-08-21T21:23:33.599Z,2.05
2022-08-21T21:26:46.228Z,2.38
2022-08-21T21:30:00.663Z,2.03
2022-08-21T21:33:07.619Z,2.60
2022-08-21T21:36:30.307Z,2.90
2022-08-21T21:39:57.770Z,3.10
2022-08-21T21:43:36.121Z,2.60
2022-08-21T21:46:53.944Z,2.35
2022-08-21T21:50:31.860Z,2.15
2022-08-21T21:53:57.124Z,2.17
2022-08-21T21:57:04.534Z,1.80
2022-08-21T22:00:20.751Z,3.10
2022-08-21T22:03:51.875Z,2.40
2022-08-21T22:07:03.775Z,2.10
2022-08-21T22:10:43.214Z,1.92
2022-08-21T22:13:54.195Z,1.88
2022-08-21T22:17:07.678Z,2.72
2022-08-21T22:20:32.852Z,2.80
2022-08-21T22:23:50.656Z,2.67
2022-08-21T22:27:03.990Z,3.03
2022-08-21T22:30:14.652Z,3.35
2022-08-21T22:33:26.035Z,3.03
2022-08-21T22:36:36.570Z,3.00
2022-08-21T22:39:46.334Z,2.42
2022-08-21T22:43:07.261Z,3.75
2022-08-21T22:46:12.784Z,3.22
2022-08-21T22:49:47.790Z,3.35
2022-08-21T22:52:58.173Z,3.08
2022-08-21T22:56:05.967Z,2.70
2022-08-21T22:59:26.712Z,2.17
2022-08-21T23:02:39.916Z,3.08
2022-08-21T23:05:45.192Z,2.85
2022-08-21T23:08:50.412Z,2.28
2022-08-21T23:11:57.122Z,2.78
2022-08-21T23:15:08.207Z,2.75
2022-08-21T23:18:19.654Z,2.95
2022-08-21T23:21:24.244Z,3.42
2022-08-21T23:24:34.746Z,2.38
2022-08-21T23:27:55.546Z,2.38
2022-08-21T23:31:22.781Z,3.03
2022-08-21T23:34:44.224Z,2.55
2022-08-21T23:38:09.389Z,2.95
2022-08-21T23:41:36.356Z,2.33
2022-08-21T23:44:53.589Z,1.65
2022-08-21T23:48:11.484Z,2.28
2022-08-21T23:51:45.613Z,2.20
2022-08-21T23:55:13.502Z,1.80
2022-08-21T23:58:46.699Z,1.80
